sensor_id;sensor_type;location;lat;lon;timestamp;pressure;altitude;pressure_sealevel;temperature;humidity
62680;BME280;68213;40.528;44.712;2023-08-20T00:00:19;80815.97;;;14.82;54.36
62680;BME280;68213;40.528;44.712;2023-08-20T00:01:27;80818.53;;;14.80;54.63
62680;BME280;68213;40.528;44.712;2023-08-20T00:02:28;80826.38;;;14.78;54.79
62680;BME280;68213;40.528;44.712;2023-08-20T00:03:32;80820.50;;;14.80;54.94
62680;BME280;68213;40.528;44.712;2023-08-20T00:04:36;80826.38;;;14.78;55.06
62680;BME280;68213;40.528;44.712;2023-08-20T00:05:38;80808.31;;;14.58;55.54
62680;BME280;68213;40.528;44.712;2023-08-20T00:06:39;80828.59;;;14.68;55.52
62680;BME280;68213;40.528;44.712;2023-08-20T00:07:40;80825.72;;;14.64;55.73
62680;BME280;68213;40.528;44.712;2023-08-20T00:08:43;80825.66;;;14.62;55.53
62680;BME280;68213;40.528;44.712;2023-08-20T00:09:44;80824.19;;;14.58;55.52
62680;BME280;68213;40.528;44.712;2023-08-20T00:10:48;80835.25;;;14.55;55.71
62680;BME280;68213;40.528;44.712;2023-08-20T00:11:48;80826.97;;;14.47;55.98
62680;BME280;68213;40.528;44.712;2023-08-20T00:12:49;80827.28;;;14.39;56.34
62680;BME280;68213;40.528;44.712;2023-08-20T00:13:50;80815.47;;;14.26;56.66
62680;BME280;68213;40.528;44.712;2023-08-20T00:14:56;80839.53;;;14.32;56.73
62680;BME280;68213;40.528;44.712;2023-08-20T00:15:58;80819.56;;;14.29;56.63
62680;BME280;68213;40.528;44.712;2023-08-20T00:16:59;80829.34;;;14.26;56.89
62680;BME280;68213;40.528;44.712;2023-08-20T00:18:00;80816.56;;;14.21;57.07
62680;BME280;68213;40.528;44.712;2023-08-20T00:19:01;80833.19;;;14.23;56.85
62680;BME280;68213;40.528;44.712;2023-08-20T00:20:04;80832.00;;;14.26;56.88
62680;BME280;68213;40.528;44.712;2023-08-20T00:21:10;80829.56;;;14.31;56.82
62680;BME280;68213;40.528;44.712;2023-08-20T00:22:12;80824.66;;;14.25;56.86
62680;BME280;68213;40.528;44.712;2023-08-20T00:23:13;80828.09;;;14.27;57.00
62680;BME280;68213;40.528;44.712;2023-08-20T00:25:28;80823.03;;;14.04;57.43
62680;BME280;68213;40.528;44.712;2023-08-20T00:26:31;80824.28;;;14.17;57.64
62680;BME280;68213;40.528;44.712;2023-08-20T00:27:32;80795.06;;;13.99;56.72
62680;BME280;68213;40.528;44.712;2023-08-20T00:28:33;80829.78;;;14.21;56.49
62680;BME280;68213;40.528;44.712;2023-08-20T00:29:34;80809.13;;;14.17;56.22
62680;BME280;68213;40.528;44.712;2023-08-20T00:30:35;80793.06;;;14.13;55.56
62680;BME280;68213;40.528;44.712;2023-08-20T00:31:35;80822.50;;;14.35;55.84
62680;BME280;68213;40.528;44.712;2023-08-20T00:32:37;80828.72;;;14.42;55.91
62680;BME280;68213;40.528;44.712;2023-08-20T00:33:38;80825.00;;;14.47;55.70
62680;BME280;68213;40.528;44.712;2023-08-20T00:34:39;80812.84;;;14.42;55.31
62680;BME280;68213;40.528;44.712;2023-08-20T00:35:40;80826.56;;;14.52;55.91
62680;BME280;68213;40.528;44.712;2023-08-20T00:36:41;80724.06;;;13.77;55.93
62680;BME280;68213;40.528;44.712;2023-08-20T00:37:41;80825.09;;;14.49;55.88
62680;BME280;68213;40.528;44.712;2023-08-20T00:38:45;80818.25;;;14.44;56.26
62680;BME280;68213;40.528;44.712;2023-08-20T00:39:45;80824.63;;;14.39;56.42
62680;BME280;68213;40.528;44.712;2023-08-20T00:40:46;80827.06;;;14.05;57.38
62680;BME280;68213;40.528;44.712;2023-08-20T00:41:47;80826.56;;;14.08;57.43
62680;BME280;68213;40.528;44.712;2023-08-20T00:42:47;80830.19;;;14.15;57.18
62680;BME280;68213;40.528;44.712;2023-08-20T00:43:48;80810.03;;;14.08;56.85
62680;BME280;68213;40.528;44.712;2023-08-20T00:44:49;80834.94;;;14.33;56.73
62680;BME280;68213;40.528;44.712;2023-08-20T00:45:49;80826.59;;;14.38;56.55
62680;BME280;68213;40.528;44.712;2023-08-20T00:46:51;80833.53;;;14.46;56.23
62680;BME280;68213;40.528;44.712;2023-08-20T00:47:52;80829.88;;;14.53;56.38
62680;BME280;68213;40.528;44.712;2023-08-20T00:48:53;80830.56;;;14.53;56.32
62680;BME280;68213;40.528;44.712;2023-08-20T00:49:54;80787.97;;;14.17;56.32
62680;BME280;68213;40.528;44.712;2023-08-20T00:50:54;80830.66;;;14.55;56.26
62680;BME280;68213;40.528;44.712;2023-08-20T00:51:55;80830.94;;;14.62;56.21
62680;BME280;68213;40.528;44.712;2023-08-20T00:52:56;80827.59;;;14.61;56.47
62680;BME280;68213;40.528;44.712;2023-08-20T00:53:57;80829.19;;;14.66;56.11
62680;BME280;68213;40.528;44.712;2023-08-20T00:54:58;80778.53;;;14.28;56.16
62680;BME280;68213;40.528;44.712;2023-08-20T00:55:59;80829.34;;;14.70;56.26
62680;BME280;68213;40.528;44.712;2023-08-20T00:57:01;80823.47;;;14.72;56.14
62680;BME280;68213;40.528;44.712;2023-08-20T00:58:02;80822.97;;;14.75;56.33
62680;BME280;68213;40.528;44.712;2023-08-20T01:00:06;80817.34;;;14.83;55.70
62680;BME280;68213;40.528;44.712;2023-08-20T01:01:10;80818.22;;;14.88;56.04
62680;BME280;68213;40.528;44.712;2023-08-20T01:02:10;80826.91;;;14.90;55.81
62680;BME280;68213;40.528;44.712;2023-08-20T01:03:13;80825.81;;;14.96;55.46
62680;BME280;68213;40.528;44.712;2023-08-20T01:04:14;80823.34;;;15.00;55.33
62680;BME280;68213;40.528;44.712;2023-08-20T01:05:15;80822.84;;;15.03;55.22
62680;BME280;68213;40.528;44.712;2023-08-20T01:06:23;80828.13;;;15.03;55.39
62680;BME280;68213;40.528;44.712;2023-08-20T01:08:47;80830.19;;;15.05;55.87
62680;BME280;68213;40.528;44.712;2023-08-20T01:11:05;80823.94;;;14.98;56.03
62680;BME280;68213;40.528;44.712;2023-08-20T01:12:08;80829.31;;;15.00;55.94
62680;BME280;68213;40.528;44.712;2023-08-20T01:13:10;80830.00;;;15.01;55.93
62680;BME280;68213;40.528;44.712;2023-08-20T01:14:15;80826.84;;;15.04;56.07
62680;BME280;68213;40.528;44.712;2023-08-20T01:15:16;80826.06;;;15.02;56.02
62680;BME280;68213;40.528;44.712;2023-08-20T01:16:17;80832.56;;;14.99;56.19
62680;BME280;68213;40.528;44.712;2023-08-20T01:17:18;80829.16;;;14.96;56.42
62680;BME280;68213;40.528;44.712;2023-08-20T01:18:18;80831.19;;;14.98;56.40
62680;BME280;68213;40.528;44.712;2023-08-20T01:19:21;80831.88;;;14.98;56.24
62680;BME280;68213;40.528;44.712;2023-08-20T01:20:26;80832.56;;;14.99;56.50
62680;BME280;68213;40.528;44.712;2023-08-20T01:21:37;80804.88;;;14.86;56.74
62680;BME280;68213;40.528;44.712;2023-08-20T01:27:53;80825.22;;;14.97;54.28
62680;BME280;68213;40.528;44.712;2023-08-20T01:28:58;80812.41;;;14.91;54.00
62680;BME280;68213;40.528;44.712;2023-08-20T01:29:59;80812.56;;;14.80;56.07
62680;BME280;68213;40.528;44.712;2023-08-20T01:31:01;80823.06;;;14.94;56.23
62680;BME280;68213;40.528;44.712;2023-08-20T01:32:04;80823.41;;;15.02;55.98
62680;BME280;68213;40.528;44.712;2023-08-20T01:33:06;80820.63;;;14.98;54.25
62680;BME280;68213;40.528;44.712;2023-08-20T01:34:07;80828.03;;;15.01;54.21
62680;BME280;68213;40.528;44.712;2023-08-20T01:35:14;80823.69;;;15.08;53.92
62680;BME280;68213;40.528;44.712;2023-08-20T01:36:16;80829.78;;;15.11;54.84
62680;BME280;68213;40.528;44.712;2023-08-20T01:37:17;80828.47;;;15.12;55.22
62680;BME280;68213;40.528;44.712;2023-08-20T01:38:18;80824.97;;;15.07;55.57
62680;BME280;68213;40.528;44.712;2023-08-20T01:39:18;80835.28;;;15.01;54.39
62680;BME280;68213;40.528;44.712;2023-08-20T01:40:19;80827.34;;;14.85;54.41
62680;BME280;68213;40.528;44.712;2023-08-20T01:41:20;80830.16;;;14.89;55.52
62680;BME280;68213;40.528;44.712;2023-08-20T01:42:21;80830.69;;;14.85;55.68
62680;BME280;68213;40.528;44.712;2023-08-20T01:43:21;80830.75;;;14.87;55.57
62680;BME280;68213;40.528;44.712;2023-08-20T01:44:22;80828.28;;;14.91;55.49
62680;BME280;68213;40.528;44.712;2023-08-20T01:45:23;80832.22;;;14.90;55.55
62680;BME280;68213;40.528;44.712;2023-08-20T01:46:24;80830.34;;;14.93;55.10
62680;BME280;68213;40.528;44.712;2023-08-20T01:47:24;80832.88;;;14.91;55.26
62680;BME280;68213;40.528;44.712;2023-08-20T01:48:25;80832.13;;;14.88;55.70
62680;BME280;68213;40.528;44.712;2023-08-20T01:49:26;80835.47;;;14.89;55.78
62680;BME280;68213;40.528;44.712;2023-08-20T01:50:26;80834.66;;;14.86;55.84
62680;BME280;68213;40.528;44.712;2023-08-20T01:51:27;80829.13;;;14.80;55.88
62680;BME280;68213;40.528;44.712;2023-08-20T01:52:28;80836.78;;;14.74;56.39
62680;BME280;68213;40.528;44.712;2023-08-20T01:53:29;80835.63;;;14.63;56.21
62680;BME280;68213;40.528;44.712;2023-08-20T01:54:30;80835.75;;;14.51;56.79
62680;BME280;68213;40.528;44.712;2023-08-20T01:55:31;80844.44;;;14.38;56.94
62680;BME280;68213;40.528;44.712;2023-08-20T01:56:31;80840.78;;;14.45;57.08
62680;BME280;68213;40.528;44.712;2023-08-20T01:57:32;80836.00;;;14.41;57.26
62680;BME280;68213;40.528;44.712;2023-08-20T01:58:33;80841.88;;;14.40;56.29
62680;BME280;68213;40.528;44.712;2023-08-20T01:59:34;80840.41;;;14.37;57.21
62680;BME280;68213;40.528;44.712;2023-08-20T02:00:34;80846.78;;;14.32;56.98
62680;BME280;68213;40.528;44.712;2023-08-20T02:01:35;80846.28;;;14.35;56.90
62680;BME280;68213;40.528;44.712;2023-08-20T02:02:36;80847.66;;;14.36;56.54
62680;BME280;68213;40.528;44.712;2023-08-20T02:03:37;80830.56;;;14.23;56.65
62680;BME280;68213;40.528;44.712;2023-08-20T02:04:40;80842.88;;;14.33;56.49
62680;BME280;68213;40.528;44.712;2023-08-20T02:05:40;80848.44;;;14.39;56.69
62680;BME280;68213;40.528;44.712;2023-08-20T02:06:43;80840.50;;;14.39;56.06
62680;BME280;68213;40.528;44.712;2023-08-20T02:07:44;80847.16;;;14.40;55.89
62680;BME280;68213;40.528;44.712;2023-08-20T02:08:44;80850.31;;;14.36;56.46
62680;BME280;68213;40.528;44.712;2023-08-20T02:09:45;80833.47;;;14.30;56.44
62680;BME280;68213;40.528;44.712;2023-08-20T02:10:46;80844.44;;;14.38;56.03
62680;BME280;68213;40.528;44.712;2023-08-20T02:11:46;80845.78;;;14.39;56.27
62680;BME280;68213;40.528;44.712;2023-08-20T02:12:47;80849.13;;;14.39;56.33
62680;BME280;68213;40.528;44.712;2023-08-20T02:14:52;80846.97;;;14.36;56.05
62680;BME280;68213;40.528;44.712;2023-08-20T02:15:58;80840.22;;;14.33;56.60
62680;BME280;68213;40.528;44.712;2023-08-20T02:17:19;80850.00;;;14.30;55.73
62680;BME280;68213;40.528;44.712;2023-08-20T02:18:20;80845.41;;;14.31;56.36
62680;BME280;68213;40.528;44.712;2023-08-20T02:19:20;80850.72;;;14.31;55.68
62680;BME280;68213;40.528;44.712;2023-08-20T02:20:21;80847.41;;;14.16;56.38
62680;BME280;68213;40.528;44.712;2023-08-20T02:21:22;80851.50;;;14.19;55.97
62680;BME280;68213;40.528;44.712;2023-08-20T02:22:23;80841.53;;;14.18;55.51
62680;BME280;68213;40.528;44.712;2023-08-20T02:23:23;80844.66;;;14.14;55.66
62680;BME280;68213;40.528;44.712;2023-08-20T02:24:24;80844.06;;;14.16;55.30
62680;BME280;68213;40.528;44.712;2023-08-20T02:25:25;80842.13;;;14.16;55.29
62680;BME280;68213;40.528;44.712;2023-08-20T02:26:26;80844.06;;;14.16;55.68
62680;BME280;68213;40.528;44.712;2023-08-20T02:27:27;80849.34;;;14.16;55.41
62680;BME280;68213;40.528;44.712;2023-08-20T02:28:27;80839.47;;;14.16;55.33
62680;BME280;68213;40.528;44.712;2023-08-20T02:29:28;80849.94;;;14.14;55.36
62680;BME280;68213;40.528;44.712;2023-08-20T02:30:28;80847.31;;;14.14;55.46
62680;BME280;68213;40.528;44.712;2023-08-20T02:31:29;80849.19;;;14.11;55.89
62680;BME280;68213;40.528;44.712;2023-08-20T02:32:30;80844.38;;;14.08;55.37
62680;BME280;68213;40.528;44.712;2023-08-20T02:33:32;80838.13;;;14.01;56.29
62680;BME280;68213;40.528;44.712;2023-08-20T02:34:32;80847.31;;;14.00;55.88
62680;BME280;68213;40.528;44.712;2023-08-20T02:35:33;80833.94;;;13.96;55.62
62680;BME280;68213;40.528;44.712;2023-08-20T02:36:34;80834.41;;;13.92;55.75
62680;BME280;68213;40.528;44.712;2023-08-20T02:37:35;80823.66;;;13.88;55.62
62680;BME280;68213;40.528;44.712;2023-08-20T02:38:36;80843.22;;;13.97;55.73
62680;BME280;68213;40.528;44.712;2023-08-20T02:39:37;80839.88;;;13.96;55.82
62680;BME280;68213;40.528;44.712;2023-08-20T02:40:41;80843.22;;;13.97;55.94
62680;BME280;68213;40.528;44.712;2023-08-20T02:41:42;80839.31;;;13.98;55.78
62680;BME280;68213;40.528;44.712;2023-08-20T02:42:43;80839.88;;;13.96;55.85
62680;BME280;68213;40.528;44.712;2023-08-20T02:43:43;80838.34;;;13.91;56.15
62680;BME280;68213;40.528;44.712;2023-08-20T02:44:44;80837.06;;;13.78;56.34
62680;BME280;68213;40.528;44.712;2023-08-20T02:45:44;80847.25;;;13.84;56.60
62680;BME280;68213;40.528;44.712;2023-08-20T02:46:45;80825.44;;;13.70;56.47
62680;BME280;68213;40.528;44.712;2023-08-20T02:47:46;80846.38;;;13.79;56.31
62680;BME280;68213;40.528;44.712;2023-08-20T02:48:46;80849.59;;;13.78;56.31
62680;BME280;68213;40.528;44.712;2023-08-20T02:49:47;80848.34;;;13.79;56.14
62680;BME280;68213;40.528;44.712;2023-08-20T02:50:53;80849.50;;;13.76;56.85
62680;BME280;68213;40.528;44.712;2023-08-20T02:51:54;80846.75;;;13.74;56.78
62680;BME280;68213;40.528;44.712;2023-08-20T02:52:55;80852.75;;;13.74;56.80
62680;BME280;68213;40.528;44.712;2023-08-20T02:53:55;80848.81;;;13.75;56.63
62680;BME280;68213;40.528;44.712;2023-08-20T02:54:56;80845.59;;;13.77;56.03
62680;BME280;68213;40.528;44.712;2023-08-20T02:55:57;80851.09;;;13.81;55.99
62680;BME280;68213;40.528;44.712;2023-08-20T02:56:58;80843.06;;;13.79;56.35
62680;BME280;68213;40.528;44.712;2023-08-20T02:57:59;80855.06;;;13.82;56.25
62680;BME280;68213;40.528;44.712;2023-08-20T02:59:00;80855.00;;;13.80;56.23
62680;BME280;68213;40.528;44.712;2023-08-20T03:00:00;80852.44;;;13.82;56.24
62680;BME280;68213;40.528;44.712;2023-08-20T03:01:01;80852.44;;;13.82;56.29
62680;BME280;68213;40.528;44.712;2023-08-20T03:02:03;80850.97;;;13.79;56.52
62680;BME280;68213;40.528;44.712;2023-08-20T03:03:04;80860.94;;;13.80;56.77
62680;BME280;68213;40.528;44.712;2023-08-20T03:04:11;80854.50;;;13.84;56.17
62680;BME280;68213;40.528;44.712;2023-08-20T03:05:12;80863.69;;;13.83;56.46
62680;BME280;68213;40.528;44.712;2023-08-20T03:06:13;80853.91;;;13.85;56.39
62680;BME280;68213;40.528;44.712;2023-08-20T03:07:13;80857.91;;;13.86;56.58
62680;BME280;68213;40.528;44.712;2023-08-20T03:08:14;80851.38;;;13.87;56.50
62680;BME280;68213;40.528;44.712;2023-08-20T03:09:15;80850.66;;;13.87;56.72
62680;BME280;68213;40.528;44.712;2023-08-20T03:10:16;80854.78;;;13.90;56.48
62680;BME280;68213;40.528;44.712;2023-08-20T03:11:17;80856.84;;;13.91;56.84
62680;BME280;68213;40.528;44.712;2023-08-20T03:12:17;80855.56;;;13.92;56.99
62680;BME280;68213;40.528;44.712;2023-08-20T03:13:18;80849.78;;;13.96;56.74
62680;BME280;68213;40.528;44.712;2023-08-20T03:14:19;80860.34;;;13.96;57.00
62680;BME280;68213;40.528;44.712;2023-08-20T03:15:20;80851.84;;;13.98;56.75
62680;BME280;68213;40.528;44.712;2023-08-20T03:16:20;80851.25;;;13.99;56.94
62680;BME280;68213;40.528;44.712;2023-08-20T03:17:21;80856.06;;;14.03;56.44
62680;BME280;68213;40.528;44.712;2023-08-20T03:18:22;80854.75;;;14.04;56.96
62680;BME280;68213;40.528;44.712;2023-08-20T03:19:22;80848.69;;;14.01;57.40
62680;BME280;68213;40.528;44.712;2023-08-20T03:20:23;80856.13;;;14.05;57.12
62680;BME280;68213;40.528;44.712;2023-08-20T03:21:24;80847.13;;;14.10;57.02
62680;BME280;68213;40.528;44.712;2023-08-20T03:22:25;80853.78;;;14.11;57.38
62680;BME280;68213;40.528;44.712;2023-08-20T03:23:26;80852.59;;;14.14;57.19
62680;BME280;68213;40.528;44.712;2023-08-20T03:24:27;80853.97;;;14.15;56.68
62680;BME280;68213;40.528;44.712;2023-08-20T03:25:28;80852.09;;;14.18;57.78
62680;BME280;68213;40.528;44.712;2023-08-20T03:26:28;80856.03;;;14.17;57.83
62680;BME280;68213;40.528;44.712;2023-08-20T03:27:29;80850.34;;;14.22;57.50
62680;BME280;68213;40.528;44.712;2023-08-20T03:28:30;80850.63;;;14.28;57.51
62680;BME280;68213;40.528;44.712;2023-08-20T03:29:30;80853.47;;;14.33;57.57
62680;BME280;68213;40.528;44.712;2023-08-20T03:30:31;80860.41;;;14.40;57.08
62680;BME280;68213;40.528;44.712;2023-08-20T03:31:31;80856.66;;;14.45;57.17
62680;BME280;68213;40.528;44.712;2023-08-20T03:32:32;80860.84;;;14.50;57.44
62680;BME280;68213;40.528;44.712;2023-08-20T03:33:33;80858.41;;;14.54;57.27
62680;BME280;68213;40.528;44.712;2023-08-20T03:34:33;80839.63;;;14.34;56.54
62680;BME280;68213;40.528;44.712;2023-08-20T03:35:37;80859.56;;;14.51;56.66
62680;BME280;68213;40.528;44.712;2023-08-20T03:36:39;80857.28;;;14.59;56.35
62680;BME280;68213;40.528;44.712;2023-08-20T03:37:39;80853.00;;;14.66;55.86
62680;BME280;68213;40.528;44.712;2023-08-20T03:38:40;80853.25;;;14.72;55.76
62680;BME280;68213;40.528;44.712;2023-08-20T03:39:40;80836.28;;;14.64;55.91
62680;BME280;68213;40.528;44.712;2023-08-20T03:40:41;80851.66;;;14.81;56.23
62680;BME280;68213;40.528;44.712;2023-08-20T03:41:42;80850.56;;;14.86;56.47
62680;BME280;68213;40.528;44.712;2023-08-20T03:42:42;80850.25;;;14.94;55.77
62680;BME280;68213;40.528;44.712;2023-08-20T03:43:43;80845.88;;;15.01;55.39
62680;BME280;68213;40.528;44.712;2023-08-20T03:44:44;80854.00;;;15.05;55.23
62680;BME280;68213;40.528;44.712;2023-08-20T03:45:44;80853.50;;;15.09;55.04
62680;BME280;68213;40.528;44.712;2023-08-20T03:46:45;80854.44;;;15.15;54.81
62680;BME280;68213;40.528;44.712;2023-08-20T03:47:46;80854.63;;;15.19;55.71
62680;BME280;68213;40.528;44.712;2023-08-20T03:48:47;80851.56;;;15.25;54.77
62680;BME280;68213;40.528;44.712;2023-08-20T03:49:50;80857.03;;;15.29;54.68
62680;BME280;68213;40.528;44.712;2023-08-20T03:50:51;80860.53;;;15.34;55.46
62680;BME280;68213;40.528;44.712;2023-08-20T03:51:51;80860.63;;;15.36;54.84
62680;BME280;68213;40.528;44.712;2023-08-20T03:52:52;80858.22;;;15.42;54.17
62680;BME280;68213;40.528;44.712;2023-08-20T03:53:53;80854.06;;;15.37;53.88
62680;BME280;68213;40.528;44.712;2023-08-20T03:54:53;80857.53;;;15.42;53.95
62680;BME280;68213;40.528;44.712;2023-08-20T03:55:54;80853.59;;;15.43;53.83
62680;BME280;68213;40.528;44.712;2023-08-20T03:56:55;80859.09;;;15.47;53.79
62680;BME280;68213;40.528;44.712;2023-08-20T03:57:56;80842.09;;;15.36;53.31
62680;BME280;68213;40.528;44.712;2023-08-20T03:58:56;80852.44;;;15.46;53.46
62680;BME280;68213;40.528;44.712;2023-08-20T03:59:57;80858.69;;;15.52;53.55
62680;BME280;68213;40.528;44.712;2023-08-20T04:00:57;80858.22;;;15.58;52.99
62680;BME280;68213;40.528;44.712;2023-08-20T04:01:58;80856.44;;;15.63;52.96
62680;BME280;68213;40.528;44.712;2023-08-20T04:02:59;80859.28;;;15.67;52.98
62680;BME280;68213;40.528;44.712;2023-08-20T04:03:59;80855.41;;;15.70;53.24
62680;BME280;68213;40.528;44.712;2023-08-20T04:05:00;80836.44;;;15.60;53.41
62680;BME280;68213;40.528;44.712;2023-08-20T04:06:01;80830.53;;;15.61;53.11
62680;BME280;68213;40.528;44.712;2023-08-20T04:07:01;80857.47;;;15.88;53.08
62680;BME280;68213;40.528;44.712;2023-08-20T04:08:03;80852.94;;;15.90;52.98
62680;BME280;68213;40.528;44.712;2023-08-20T04:09:04;80858.06;;;16.02;52.92
62680;BME280;68213;40.528;44.712;2023-08-20T04:10:07;80857.97;;;16.00;53.07
62680;BME280;68213;40.528;44.712;2023-08-20T04:11:09;80856.94;;;16.07;52.77
62680;BME280;68213;40.528;44.712;2023-08-20T04:12:09;80855.75;;;16.10;52.75
62680;BME280;68213;40.528;44.712;2023-08-20T04:13:10;80853.09;;;16.10;52.67
62680;BME280;68213;40.528;44.712;2023-08-20T04:14:11;80854.28;;;16.07;52.19
62680;BME280;68213;40.528;44.712;2023-08-20T04:15:11;80856.16;;;16.05;52.13
62680;BME280;68213;40.528;44.712;2023-08-20T04:16:12;80852.25;;;16.06;52.33
62680;BME280;68213;40.528;44.712;2023-08-20T04:17:13;80855.66;;;16.08;52.61
62680;BME280;68213;40.528;44.712;2023-08-20T04:18:14;80855.81;;;16.12;52.52
62680;BME280;68213;40.528;44.712;2023-08-20T04:19:15;80857.88;;;16.14;52.90
62680;BME280;68213;40.528;44.712;2023-08-20T04:20:15;80857.41;;;16.20;52.42
62680;BME280;68213;40.528;44.712;2023-08-20T04:21:16;80860.84;;;16.22;52.28
62680;BME280;68213;40.528;44.712;2023-08-20T04:22:17;80858.34;;;16.26;52.33
62680;BME280;68213;40.528;44.712;2023-08-20T04:23:18;80860.31;;;16.26;51.60
62680;BME280;68213;40.528;44.712;2023-08-20T04:24:19;80840.16;;;16.18;51.79
62680;BME280;68213;40.528;44.712;2023-08-20T04:25:22;80858.00;;;16.34;51.93
62680;BME280;68213;40.528;44.712;2023-08-20T04:26:23;80855.59;;;16.40;52.19
62680;BME280;68213;40.528;44.712;2023-08-20T04:27:24;80855.66;;;16.42;52.12
62680;BME280;68213;40.528;44.712;2023-08-20T04:28:27;80863.59;;;16.42;51.59
62680;BME280;68213;40.528;44.712;2023-08-20T04:29:28;80848.47;;;16.45;51.74
62680;BME280;68213;40.528;44.712;2023-08-20T04:30:29;80857.09;;;16.45;51.91
62680;BME280;68213;40.528;44.712;2023-08-20T04:31:30;80867.34;;;16.53;51.94
62680;BME280;68213;40.528;44.712;2023-08-20T04:32:30;80848.84;;;16.55;51.76
62680;BME280;68213;40.528;44.712;2023-08-20T04:33:31;80848.50;;;16.63;51.57
62680;BME280;68213;40.528;44.712;2023-08-20T04:34:32;80843.91;;;16.47;51.20
62680;BME280;68213;40.528;44.712;2023-08-20T04:35:36;80851.94;;;16.49;51.26
62680;BME280;68213;40.528;44.712;2023-08-20T04:36:36;80847.41;;;16.52;51.80
62680;BME280;68213;40.528;44.712;2023-08-20T04:37:37;80847.78;;;16.62;51.52
62680;BME280;68213;40.528;44.712;2023-08-20T04:38:38;80851.91;;;16.65;51.25
62680;BME280;68213;40.528;44.712;2023-08-20T04:39:38;80847.56;;;16.74;51.83
62680;BME280;68213;40.528;44.712;2023-08-20T04:40:39;80853.06;;;16.78;52.13
62680;BME280;68213;40.528;44.712;2023-08-20T04:41:40;80843.34;;;16.85;51.15
62680;BME280;68213;40.528;44.712;2023-08-20T04:42:43;80849.25;;;16.84;50.85
62680;BME280;68213;40.528;44.712;2023-08-20T04:43:43;80847.16;;;16.98;50.52
62680;BME280;68213;40.528;44.712;2023-08-20T04:44:44;80844.66;;;17.02;50.63
62680;BME280;68213;40.528;44.712;2023-08-20T04:45:45;80843.53;;;17.07;50.25
62680;BME280;68213;40.528;44.712;2023-08-20T04:46:48;80850.97;;;17.11;49.83
62680;BME280;68213;40.528;44.712;2023-08-20T04:47:48;80848.53;;;17.17;49.50
62680;BME280;68213;40.528;44.712;2023-08-20T04:48:49;80846.63;;;17.20;49.63
62680;BME280;68213;40.528;44.712;2023-08-20T04:49:50;80852.00;;;17.22;49.72
62680;BME280;68213;40.528;44.712;2023-08-20T04:50:50;80853.53;;;17.27;49.94
62680;BME280;68213;40.528;44.712;2023-08-20T04:51:51;80850.19;;;17.26;50.00
62680;BME280;68213;40.528;44.712;2023-08-20T04:52:52;80846.91;;;17.28;50.15
62680;BME280;68213;40.528;44.712;2023-08-20T04:53:52;80850.00;;;17.40;49.60
62680;BME280;68213;40.528;44.712;2023-08-20T04:54:53;80848.63;;;17.39;49.48
62680;BME280;68213;40.528;44.712;2023-08-20T04:55:54;80854.94;;;17.48;49.80
62680;BME280;68213;40.528;44.712;2023-08-20T04:56:54;80851.06;;;17.51;49.33
62680;BME280;68213;40.528;44.712;2023-08-20T04:57:55;80846.44;;;17.52;49.00
62680;BME280;68213;40.528;44.712;2023-08-20T04:58:56;80830.75;;;17.40;48.99
62680;BME280;68213;40.528;44.712;2023-08-20T04:59:57;80846.56;;;17.56;49.26
62680;BME280;68213;40.528;44.712;2023-08-20T05:00:58;80840.72;;;17.59;49.69
62680;BME280;68213;40.528;44.712;2023-08-20T05:01:58;80848.06;;;17.61;48.78
62680;BME280;68213;40.528;44.712;2023-08-20T05:02:59;80852.78;;;17.63;49.16
62680;BME280;68213;40.528;44.712;2023-08-20T05:04:00;80845.41;;;17.61;48.93
62680;BME280;68213;40.528;44.712;2023-08-20T05:05:02;80845.34;;;17.59;49.09
62680;BME280;68213;40.528;44.712;2023-08-20T05:06:04;80842.50;;;17.53;49.34
62680;BME280;68213;40.528;44.712;2023-08-20T05:07:05;80821.00;;;17.47;49.35
62680;BME280;68213;40.528;44.712;2023-08-20T05:08:05;80839.59;;;17.47;49.39
62680;BME280;68213;40.528;44.712;2023-08-20T05:09:06;80845.00;;;17.49;50.25
62680;BME280;68213;40.528;44.712;2023-08-20T05:10:07;80765.59;;;17.01;49.16
62680;BME280;68213;40.528;44.712;2023-08-20T05:11:09;80839.88;;;17.55;49.68
62680;BME280;68213;40.528;44.712;2023-08-20T05:12:09;80842.00;;;17.58;50.36
62680;BME280;68213;40.528;44.712;2023-08-20T05:13:10;80845.56;;;17.65;49.76
62680;BME280;68213;40.528;44.712;2023-08-20T05:14:11;80845.78;;;17.71;49.75
62680;BME280;68213;40.528;44.712;2023-08-20T05:15:12;80804.28;;;17.44;49.74
62680;BME280;68213;40.528;44.712;2023-08-20T05:16:12;80844.16;;;17.82;49.50
62680;BME280;68213;40.528;44.712;2023-08-20T05:17:13;80843.53;;;17.84;49.63
62680;BME280;68213;40.528;44.712;2023-08-20T05:18:14;80835.84;;;17.72;49.42
62680;BME280;68213;40.528;44.712;2023-08-20T05:19:14;80844.78;;;17.81;48.88
62680;BME280;68213;40.528;44.712;2023-08-20T05:20:15;80844.22;;;17.84;48.85
62680;BME280;68213;40.528;44.712;2023-08-20T05:21:16;80848.31;;;17.87;48.53
62680;BME280;68213;40.528;44.712;2023-08-20T05:22:16;80839.44;;;17.81;49.03
62680;BME280;68213;40.528;44.712;2023-08-20T05:23:17;80821.78;;;17.69;48.99
62680;BME280;68213;40.528;44.712;2023-08-20T05:24:18;80844.91;;;17.85;48.75
62680;BME280;68213;40.528;44.712;2023-08-20T05:25:18;80845.84;;;17.73;49.28
62680;BME280;68213;40.528;44.712;2023-08-20T05:26:21;80845.69;;;17.69;49.15
62680;BME280;68213;40.528;44.712;2023-08-20T05:27:22;80842.88;;;17.83;49.76
62680;BME280;68213;40.528;44.712;2023-08-20T05:28:23;80845.81;;;17.91;49.56
62680;BME280;68213;40.528;44.712;2023-08-20T05:29:24;80838.75;;;17.98;49.48
62680;BME280;68213;40.528;44.712;2023-08-20T05:30:24;80852.25;;;18.04;49.09
62680;BME280;68213;40.528;44.712;2023-08-20T05:31:25;80850.41;;;18.09;49.23